createdAt,value
2022-08-16T00:01:21.825Z,100408.53
2022-08-16T00:03:54.384Z,100414.16
2022-08-16T00:06:22.834Z,100414.16
2022-08-16T00:08:52.448Z,100425.59
2022-08-16T00:11:20.907Z,100411.28
2022-08-16T00:13:53.041Z,100412.56
2022-08-16T00:17:05.506Z,100417.34
2022-08-16T00:19:13.438Z,100419.22
2022-08-16T00:21:42.244Z,100419.44
2022-08-16T00:24:12.255Z,100413.00
2022-08-16T00:26:44.543Z,100408.41
2022-08-16T00:29:15.600Z,100420.03
2022-08-16T00:31:47.061Z,100411.34
2022-08-16T00:34:41.401Z,100415.09
2022-08-16T00:37:18.483Z,100408.03
2022-08-16T00:39:47.760Z,100408.47
2022-08-16T00:42:30.345Z,100403.91
2022-08-16T00:45:08.501Z,100410.16
2022-08-16T00:47:38.510Z,100400.38
2022-08-16T00:50:11.841Z,100411.78
2022-08-16T00:52:45.821Z,100406.81
2022-08-16T00:55:20.414Z,100409.94
2022-08-16T00:58:00.052Z,100396.13
2022-08-16T01:00:30.415Z,100403.78
2022-08-16T01:03:00.847Z,100413.34
2022-08-16T01:05:30.473Z,100407.34
2022-08-16T01:08:01.141Z,100409.88
2022-08-16T01:10:33.582Z,100411.75
2022-08-16T01:13:05.580Z,100399.53
2022-08-16T01:15:35.137Z,100397.88
2022-08-16T01:18:04.425Z,100401.63
2022-08-16T01:20:36.765Z,100406.44
2022-08-16T01:23:09.164Z,100392.31
2022-08-16T01:25:41.940Z,100393.34
2022-08-16T01:28:19.972Z,100390.88
2022-08-16T01:30:51.470Z,100400.84
2022-08-16T01:33:20.571Z,100386.75
2022-08-16T01:35:54.319Z,100384.50
2022-08-16T01:38:28.413Z,100397.97
2022-08-16T01:41:02.261Z,100391.75
2022-08-16T01:43:31.604Z,100398.41
2022-08-16T01:46:17.464Z,100397.19
2022-08-16T01:48:48.943Z,100393.06
2022-08-16T01:51:18.071Z,100396.00
2022-08-16T01:53:55.524Z,100397.22
2022-08-16T01:56:27.062Z,100398.94
2022-08-16T01:58:57.330Z,100389.03
2022-08-16T02:01:26.177Z,100407.47
2022-08-16T02:03:58.621Z,100405.44
2022-08-16T02:06:38.834Z,100408.34
2022-08-16T02:09:11.989Z,100409.59
2022-08-16T02:11:48.623Z,100412.72
2022-08-16T02:14:22.417Z,100402.78
2022-08-16T02:16:54.747Z,100404.63
2022-08-16T02:19:24.400Z,100401.13
2022-08-16T02:22:34.371Z,100402.56
2022-08-16T02:25:02.465Z,100409.81
2022-08-16T02:27:31.900Z,100400.28
2022-08-16T02:30:05.308Z,100408.59
2022-08-16T02:32:49.148Z,100408.19
2022-08-16T02:35:23.120Z,100410.28
2022-08-16T02:37:53.016Z,100415.06
2022-08-16T02:40:22.335Z,100411.13
2022-08-16T02:42:52.434Z,100413.22
2022-08-16T02:45:24.649Z,100412.63
2022-08-16T02:48:00.693Z,100415.72
2022-08-16T02:50:53.706Z,100410.34
2022-08-16T02:53:30.207Z,100410.34
2022-08-16T02:55:57.922Z,100410.78
2022-08-16T02:58:29.085Z,100402.69
2022-08-16T03:00:57.657Z,100412.84
2022-08-16T03:03:26.153Z,100405.81
2022-08-16T03:05:54.248Z,100406.84
2022-08-16T03:08:50.533Z,100394.06
2022-08-16T03:11:20.471Z,100401.91
2022-08-16T03:13:56.472Z,100397.97
2022-08-16T03:16:38.397Z,100402.31
2022-08-16T03:19:10.266Z,100399.59
2022-08-16T03:21:38.853Z,100396.09
2022-08-16T03:24:29.236Z,100394.66
2022-08-16T03:26:58.077Z,100397.34
2022-08-16T03:29:30.113Z,100405.88
2022-08-16T03:31:59.027Z,100400.50
2022-08-16T03:34:27.630Z,100410.03
2022-08-16T03:36:55.770Z,100408.38
2022-08-16T03:39:23.617Z,100394.69
2022-08-16T03:41:59.767Z,100394.09
2022-08-16T03:44:43.349Z,100404.25
2022-08-16T03:47:18.579Z,100409.00
2022-08-16T03:49:51.984Z,100404.06
2022-08-16T03:52:20.475Z,100402.41
2022-08-16T03:54:57.469Z,100407.19
2022-08-16T03:57:31.859Z,100402.84
2022-08-16T04:00:35.401Z,100411.28
2022-08-16T04:03:07.504Z,100406.34
2022-08-16T04:05:36.923Z,100403.88
2022-08-16T04:08:23.339Z,100405.94
2022-08-16T04:10:53.243Z,100404.28
2022-08-16T04:14:00.681Z,100385.28
2022-08-16T04:16:27.869Z,100400.97
2022-08-16T04:19:01.986Z,100397.69
2022-08-16T04:21:30.807Z,100410.53
2022-08-16T04:23:59.981Z,100409.91
2022-08-16T04:26:30.733Z,100408.47
2022-08-16T04:29:16.892Z,100408.88
2022-08-16T04:31:56.354Z,100407.44
2022-08-16T04:34:27.329Z,100409.72
2022-08-16T04:36:55.219Z,100416.31
2022-08-16T04:39:25.171Z,100419.22
2022-08-16T04:42:11.059Z,100419.66
2022-08-16T04:44:53.913Z,100421.75
2022-08-16T04:47:25.467Z,100425.44
2022-08-16T04:49:59.949Z,100428.34
2022-08-16T04:52:34.829Z,100431.03
2022-08-16T04:55:06.059Z,100437.06
2022-08-16T04:57:33.873Z,100448.44
2022-08-16T05:00:31.079Z,100456.50
2022-08-16T05:02:55.713Z,100454.63
2022-08-16T05:05:24.284Z,100458.16
2022-08-16T05:07:59.914Z,100456.06
2022-08-16T05:10:29.446Z,100460.63
2022-08-16T05:12:57.767Z,100450.09
2022-08-16T05:15:25.801Z,100463.97
2022-08-16T05:17:58.897Z,100466.44
2022-08-16T05:20:39.494Z,100460.22
2022-08-16T05:23:15.094Z,100480.50
2022-08-16T05:25:48.710Z,100476.78
2022-08-16T05:28:17.347Z,100468.72
2022-08-16T05:30:46.148Z,100479.69
2022-08-16T05:33:21.180Z,100484.84
2022-08-16T05:35:54.810Z,100486.72
2022-08-16T05:38:32.828Z,100492.94
2022-08-16T05:41:09.319Z,100494.78
2022-08-16T05:43:43.714Z,100490.66
2022-08-16T05:46:30.331Z,100496.03
2022-08-16T05:49:09.001Z,100494.19
2022-08-16T05:51:40.301Z,100495.00
2022-08-16T05:54:11.307Z,100502.03
2022-08-16T05:56:39.725Z,100513.03
2022-08-16T05:59:08.420Z,100504.13
2022-08-16T06:01:38.243Z,100503.28
2022-08-16T06:04:12.961Z,100510.72
2022-08-16T06:06:57.028Z,100507.41
2022-08-16T06:09:25.807Z,100510.09
2022-08-16T06:12:12.727Z,100509.06
2022-08-16T06:14:58.435Z,100508.44
2022-08-16T06:17:43.935Z,100515.91
2022-08-16T06:20:23.139Z,100518.19
2022-08-16T06:22:57.916Z,100511.34
2022-08-16T06:25:36.697Z,100509.06
2022-08-16T06:28:08.615Z,100524.19
2022-08-16T06:30:43.760Z,100524.41
2022-08-16T06:33:13.061Z,100514.47
2022-08-16T06:35:49.273Z,100512.00
2022-08-16T06:38:34.026Z,100512.00
2022-08-16T06:41:04.081Z,100510.75
2022-08-16T06:43:32.358Z,100513.22
2022-08-16T06:46:00.603Z,100514.47
2022-08-16T06:48:32.817Z,100507.44
2022-08-16T06:51:03.863Z,100512.78
2022-08-16T06:53:33.753Z,100514.06
2022-08-16T06:56:06.046Z,100517.13
2022-08-16T06:58:41.530Z,100510.09
2022-08-16T07:01:09.916Z,100510.31
2022-08-16T07:03:55.028Z,100513.44
2022-08-16T07:06:26.812Z,100510.34
2022-08-16T07:08:55.337Z,100513.44
2022-08-16T07:11:45.542Z,100513.03
2022-08-16T07:14:24.198Z,100511.78
2022-08-16T07:16:58.297Z,100515.69
2022-08-16T07:20:01.377Z,100516.13
2022-08-16T07:22:39.190Z,100519.84
2022-08-16T07:25:05.311Z,100533.50
2022-08-16T07:27:33.640Z,100532.25
2022-08-16T07:30:01.830Z,100540.50
2022-08-16T07:32:31.646Z,100534.09
2022-08-16T07:34:59.508Z,100540.09
2022-08-16T07:37:28.670Z,100535.09
2022-08-16T07:39:57.260Z,100539.03
2022-08-16T07:42:34.772Z,100529.69
2022-08-16T07:45:03.413Z,100533.41
2022-08-16T07:47:35.459Z,100535.25
2022-08-16T07:50:07.810Z,100535.47
2022-08-16T07:52:42.470Z,100532.16
2022-08-16T07:55:11.634Z,100535.44
2022-08-16T07:57:55.891Z,100535.41
2022-08-16T08:00:27.169Z,100535.38
2022-08-16T08:03:00.334Z,100535.13
2022-08-16T08:05:35.792Z,100540.69
2022-08-16T08:08:12.011Z,100534.41
2022-08-16T08:10:53.872Z,100545.41
2022-08-16T08:13:42.010Z,100543.91
2022-08-16T08:16:18.325Z,100549.94
2022-08-16T08:18:50.265Z,100547.03
2022-08-16T08:21:27.339Z,100542.44
2022-08-16T08:23:57.596Z,100550.69
2022-08-16T08:26:26.049Z,100550.50
2022-08-16T08:29:00.951Z,100553.94
2022-08-16T08:31:29.066Z,100552.47
2022-08-16T08:33:58.463Z,100556.19
2022-08-16T08:36:33.476Z,100565.25
2022-08-16T08:40:45.951Z,100566.94
2022-08-16T08:43:18.391Z,100568.38
2022-08-16T08:45:48.542Z,100575.19
2022-08-16T08:48:33.329Z,100581.22
2022-08-16T08:51:02.876Z,100573.50
2022-08-16T08:53:30.859Z,100578.69
2022-08-16T08:56:00.192Z,100575.09
2022-08-16T08:58:34.223Z,100583.75
2022-08-16T09:01:02.981Z,100584.31
2022-08-16T09:03:32.622Z,100587.81
2022-08-16T09:06:00.573Z,100576.72
2022-08-16T09:08:28.445Z,100576.44
2022-08-16T09:11:02.410Z,100582.59
2022-08-16T09:13:33.956Z,100572.19
2022-08-16T09:16:02.933Z,100570.91
2022-08-16T09:18:35.970Z,100572.19
2022-08-16T09:21:09.548Z,100577.13
2022-08-16T09:23:37.673Z,100575.41
2022-08-16T09:26:45.684Z,100582.19
2022-08-16T09:29:14.773Z,100579.41
2022-08-16T09:31:42.707Z,100578.94
2022-08-16T09:34:11.155Z,100581.56
2022-08-16T09:36:46.211Z,100583.66
2022-08-16T09:39:16.047Z,100576.28
2022-08-16T09:41:53.149Z,100599.03
2022-08-16T09:45:11.227Z,100580.09
2022-08-16T09:47:11.943Z,100580.91
2022-08-16T09:49:41.183Z,100587.75
2022-08-16T09:52:10.149Z,100580.25
2022-08-16T09:54:38.527Z,100583.53
2022-08-16T09:57:12.438Z,100584.75
2022-08-16T09:59:42.111Z,100591.59
2022-08-16T10:02:26.176Z,100576.16
2022-08-16T10:04:55.867Z,100573.81
2022-08-16T10:07:23.836Z,100566.69
2022-08-16T10:09:55.608Z,100560.59
2022-08-16T10:12:43.426Z,100577.78
2022-08-16T10:15:15.582Z,100570.25
2022-08-16T10:17:45.700Z,100578.06
2022-08-16T10:20:30.883Z,100569.66
2022-08-16T10:23:05.138Z,100573.91
2022-08-16T10:27:19.575Z,100576.88
2022-08-16T10:28:32.060Z,100570.88
2022-08-16T10:31:03.674Z,100568.63
2022-08-16T10:33:34.026Z,100567.47
2022-08-16T10:36:04.906Z,100569.03
2022-08-16T10:38:36.841Z,100569.84
2022-08-16T10:41:05.613Z,100577.63
2022-08-16T10:43:35.597Z,100578.66
2022-08-16T10:46:39.209Z,100576.44
2022-08-16T10:48:53.620Z,100584.06
2022-08-16T10:51:21.335Z,100592.81
2022-08-16T10:54:02.925Z,100592.81
2022-08-16T10:56:55.891Z,100595.03
2022-08-16T10:59:45.017Z,100593.53
2022-08-16T11:02:59.078Z,100591.16
2022-08-16T11:05:08.563Z,100588.84
2022-08-16T11:07:45.162Z,100592.13
2022-08-16T11:16:25.442Z,100605.00
2022-08-16T11:19:05.868Z,100604.66
2022-08-16T11:22:39.620Z,100609.50
2022-08-16T11:24:42.571Z,100611.03
2022-08-16T11:27:23.253Z,100599.72
2022-08-16T11:29:53.393Z,100605.97
2022-08-16T11:32:32.379Z,100608.91
2022-08-16T11:35:10.200Z,100620.22
2022-08-16T11:40:32.270Z,100613.63
2022-08-16T11:43:00.253Z,100619.78
2022-08-16T11:45:28.119Z,100606.69
2022-08-16T11:48:01.438Z,100613.50
2022-08-16T11:50:33.210Z,100611.09
2022-08-16T11:53:03.422Z,100610.03
2022-08-16T11:55:32.620Z,100620.91
2022-08-16T11:58:01.215Z,100621.50
2022-08-16T12:00:33.518Z,100616.97
2022-08-16T12:03:19.232Z,100619.53
2022-08-16T12:05:52.109Z,100620.44
2022-08-16T12:08:26.010Z,100611.78
2022-08-16T12:10:55.293Z,100619.22
2022-08-16T12:13:27.433Z,100615.69
2022-08-16T12:15:55.921Z,100607.28
2022-08-16T12:18:24.435Z,100611.25
2022-08-16T12:20:55.333Z,100608.38
2022-08-16T12:23:25.993Z,100614.41
2022-08-16T12:25:54.126Z,100617.22
2022-08-16T12:28:25.365Z,100609.16
2022-08-16T12:31:05.561Z,100611.63
2022-08-16T12:33:44.676Z,100611.06
2022-08-16T12:36:14.550Z,100609.63
2022-08-16T12:38:48.275Z,100618.94
2022-08-16T12:41:24.647Z,100617.06
2022-08-16T12:43:57.170Z,100622.00
2022-08-16T12:46:30.998Z,100613.28
2022-08-16T12:48:58.687Z,100613.84
2022-08-16T12:51:57.566Z,100620.69
2022-08-16T12:54:19.804Z,100614.13
2022-08-16T12:56:48.225Z,100616.78
2022-08-16T12:59:20.462Z,100615.28
2022-08-16T13:01:50.311Z,100614.34
2022-08-16T13:04:20.333Z,100622.59
2022-08-16T13:06:52.540Z,100625.50
2022-08-16T13:09:26.130Z,100623.03
2022-08-16T13:12:04.525Z,100623.75
2022-08-16T13:14:35.419Z,100631.75
2022-08-16T13:17:06.487Z,100626.00
2022-08-16T13:20:05.553Z,100622.53
2022-08-16T13:22:24.756Z,100626.47
2022-08-16T13:24:53.660Z,100625.91
2022-08-16T13:28:03.274Z,100623.44
2022-08-16T13:30:36.079Z,100624.13
2022-08-16T13:32:59.283Z,100626.44
2022-08-16T13:35:34.621Z,100623.72
2022-08-16T13:38:04.158Z,100626.28
2022-08-16T13:40:34.286Z,100630.53
2022-08-16T13:43:02.834Z,100633.50
2022-08-16T13:45:36.152Z,100631.03
2022-08-16T13:48:05.528Z,100634.59
2022-08-16T13:50:51.757Z,100633.09
2022-08-16T13:53:24.508Z,100633.00
2022-08-16T13:55:58.597Z,100630.03
2022-08-16T13:58:35.772Z,100628.22
2022-08-16T14:01:09.441Z,100627.94
2022-08-16T14:03:38.026Z,100633.16
2022-08-16T14:06:10.883Z,100626.00
2022-08-16T14:08:42.165Z,100625.50
2022-08-16T14:11:11.953Z,100628.63
2022-08-16T14:13:40.964Z,100629.19
2022-08-16T14:16:23.424Z,100633.09
2022-08-16T14:18:52.736Z,100620.72
2022-08-16T14:21:21.864Z,100620.72
2022-08-16T14:23:53.045Z,100619.56
2022-08-16T14:26:21.451Z,100624.50
2022-08-16T14:28:50.994Z,100621.53
2022-08-16T14:31:19.981Z,100614.78
2022-08-16T14:33:47.664Z,100631.41
2022-08-16T14:36:18.830Z,100627.31
2022-08-16T14:38:54.447Z,100629.25
2022-08-16T14:41:22.271Z,100625.84
2022-08-16T14:43:50.738Z,100628.69
2022-08-16T14:46:18.711Z,100633.41
2022-08-16T14:48:46.415Z,100634.22
2022-08-16T14:51:15.784Z,100631.25
2022-08-16T14:53:45.332Z,100633.22
2022-08-16T14:56:17.412Z,100630.56
2022-08-16T14:59:02.514Z,100630.56
2022-08-16T15:01:52.130Z,100628.91
2022-08-16T15:04:39.266Z,100632.78
2022-08-16T15:07:06.945Z,100638.78
2022-08-16T15:09:43.863Z,100640.44
2022-08-16T15:12:33.564Z,100637.63
2022-08-16T15:15:12.795Z,100632.72
2022-08-16T15:17:54.500Z,100632.63
2022-08-16T15:20:26.123Z,100639.00
2022-08-16T15:22:54.984Z,100634.00
2022-08-16T15:25:27.621Z,100639.31
2022-08-16T15:28:00.794Z,100629.78
2022-08-16T15:30:59.878Z,100640.41
2022-08-16T15:33:23.184Z,100631.16
2022-08-16T15:35:55.563Z,100633.41
2022-08-16T15:38:55.240Z,100634.00
2022-08-16T15:41:32.442Z,100631.41
2022-08-16T15:44:05.521Z,100640.31
2022-08-16T15:46:56.482Z,100644.94
2022-08-16T15:49:34.809Z,100642.81
2022-08-16T15:52:16.323Z,100646.91
2022-08-16T15:54:52.604Z,100645.28
2022-08-16T15:57:21.662Z,100642.00
2022-08-16T15:59:52.941Z,100637.38
2022-08-16T16:02:29.641Z,100643.63
2022-08-16T16:05:00.630Z,100647.91
2022-08-16T16:07:30.318Z,100646.16
2022-08-16T16:09:58.815Z,100647.19
2022-08-16T16:12:51.429Z,100649.25
2022-08-16T16:15:16.735Z,100643.47
2022-08-16T16:19:05.098Z,100658.28
2022-08-16T16:21:35.246Z,100650.06
2022-08-16T16:24:03.314Z,100653.25
2022-08-16T16:26:51.327Z,100651.72
2022-08-16T16:29:19.309Z,100648.09
2022-08-16T16:31:53.064Z,100653.88
2022-08-16T16:34:32.457Z,100653.88
2022-08-16T16:37:02.945Z,100650.34
2022-08-16T16:39:32.691Z,100654.13
2022-08-16T16:42:00.562Z,100654.59
2022-08-16T16:44:33.648Z,100658.75
2022-08-16T16:47:03.871Z,100662.38
2022-08-16T16:49:33.809Z,100657.31
2022-08-16T16:52:07.411Z,100665.19
2022-08-16T16:54:35.578Z,100662.16
2022-08-16T16:57:03.356Z,100673.34
2022-08-16T16:59:30.723Z,100675.75
2022-08-16T17:02:39.006Z,100668.66
2022-08-16T17:04:49.802Z,100677.03
2022-08-16T17:07:17.858Z,100676.94
2022-08-16T17:09:51.751Z,100679.31
2022-08-16T17:12:24.556Z,100668.13
2022-08-16T17:14:53.316Z,100674.28
2022-08-16T17:17:20.999Z,100674.53
2022-08-16T17:19:50.496Z,100671.22
2022-08-16T17:22:20.203Z,100678.31
2022-08-16T17:24:50.319Z,100681.25
2022-08-16T17:27:32.057Z,100684.22
2022-08-16T17:30:01.306Z,100688.81
2022-08-16T17:32:33.550Z,100687.91
2022-08-16T17:35:21.407Z,100683.78
2022-08-16T17:37:52.161Z,100679.56
2022-08-16T17:40:25.338Z,100688.78
2022-08-16T17:43:05.513Z,100685.47
2022-08-16T17:45:33.247Z,100696.94
2022-08-16T17:48:01.203Z,100701.78
2022-08-16T17:50:30.429Z,100701.16
2022-08-16T17:52:58.428Z,100701.09
2022-08-16T17:55:28.911Z,100693.41
2022-08-16T17:57:56.642Z,100703.69
2022-08-16T18:00:25.209Z,100698.75
2022-08-16T18:02:53.361Z,100695.88
2022-08-16T18:05:21.310Z,100694.75
2022-08-16T18:07:50.378Z,100707.69
2022-08-16T18:10:31.267Z,100704.91
2022-08-16T18:13:02.311Z,100708.66
2022-08-16T18:15:30.984Z,100711.28
2022-08-16T18:17:58.743Z,100716.59
2022-08-16T18:20:44.087Z,100714.34
2022-08-16T18:23:15.537Z,100713.53
2022-08-16T18:25:47.178Z,100706.09
2022-08-16T18:28:15.166Z,100714.22
2022-08-16T18:30:45.799Z,100720.72
2022-08-16T18:33:18.045Z,100720.41
2022-08-16T18:35:46.035Z,100719.53
2022-08-16T18:38:15.155Z,100720.03
2022-08-16T18:40:43.558Z,100725.69
2022-08-16T18:43:14.035Z,100725.94
2022-08-16T18:45:43.388Z,100720.97
2022-08-16T18:48:12.398Z,100730.16
2022-08-16T18:51:04.481Z,100733.59
2022-08-16T18:53:30.984Z,100739.50
2022-08-16T18:56:00.007Z,100735.38
2022-08-16T18:58:28.496Z,100741.47
2022-08-16T19:00:57.414Z,100750.91
2022-08-16T19:03:27.043Z,100748.88
2022-08-16T19:05:57.903Z,100751.34
2022-08-16T19:08:26.380Z,100762.69
2022-08-16T19:10:55.743Z,100767.50
2022-08-16T19:13:25.168Z,100770.91
2022-08-16T19:15:54.373Z,100779.88
2022-08-16T19:18:22.883Z,100774.94
2022-08-16T19:20:51.076Z,100774.56
2022-08-16T19:23:25.978Z,100774.78
2022-08-16T19:25:58.397Z,100784.47
2022-08-16T19:28:50.503Z,100780.31
2022-08-16T19:31:22.825Z,100796.00
2022-08-16T19:33:54.842Z,100784.31
2022-08-16T19:36:31.805Z,100791.03
2022-08-16T19:39:06.940Z,100796.66
2022-08-16T19:41:39.639Z,100795.25
2022-08-16T19:44:07.650Z,100801.75
2022-08-16T19:46:35.723Z,100801.41
2022-08-16T19:49:04.220Z,100799.59
2022-08-16T19:51:31.921Z,100803.38
2022-08-16T19:53:59.798Z,100800.50
2022-08-16T19:56:27.594Z,100800.31
2022-08-16T19:59:18.218Z,100808.09
2022-08-16T20:01:45.072Z,100811.50
2022-08-16T20:04:13.446Z,100819.03
2022-08-16T20:06:41.293Z,100821.56
2022-08-16T20:09:10.460Z,100812.03
2022-08-16T20:11:42.358Z,100817.06
2022-08-16T20:14:11.505Z,100821.91
2022-08-16T20:16:47.121Z,100819.06
2022-08-16T20:19:14.904Z,100825.72
2022-08-16T20:21:42.633Z,100828.91
2022-08-16T20:24:32.959Z,100830.19
2022-08-16T20:26:58.365Z,100825.69
2022-08-16T20:29:27.429Z,100827.75
2022-08-16T20:31:55.080Z,100835.28
2022-08-16T20:34:22.742Z,100845.53
2022-08-16T20:36:50.472Z,100830.78
2022-08-16T20:39:18.174Z,100836.66
2022-08-16T20:41:46.064Z,100841.91
2022-08-16T20:44:14.057Z,100846.69
2022-08-16T20:46:43.244Z,100851.50
2022-08-16T20:49:11.082Z,100853.00
2022-08-16T20:51:49.454Z,100852.16
2022-08-16T20:54:18.854Z,100854.28
2022-08-16T20:56:46.589Z,100866.38
2022-08-16T20:59:14.580Z,100862.22
2022-08-16T21:01:46.390Z,100855.47
2022-08-16T21:04:18.712Z,100861.41
2022-08-16T21:06:54.113Z,100869.38
2022-08-16T21:09:23.465Z,100870.09
2022-08-16T21:11:53.393Z,100873.66
2022-08-16T21:14:21.085Z,100873.09
2022-08-16T21:16:50.368Z,100879.13
2022-08-16T21:19:18.275Z,100881.03
2022-08-16T21:21:45.975Z,100887.91
2022-08-16T21:24:14.296Z,100892.31
2022-08-16T21:26:53.869Z,100893.94
2022-08-16T21:29:31.614Z,100892.72
2022-08-16T21:32:12.861Z,100897.94
2022-08-16T21:34:41.350Z,100889.66
2022-08-16T21:37:09.179Z,100893.81
2022-08-16T21:39:37.078Z,100888.03
2022-08-16T21:42:09.172Z,100881.75
2022-08-16T21:44:39.070Z,100888.03
2022-08-16T21:47:07.038Z,100888.22
2022-08-16T21:49:37.849Z,100881.38
2022-08-16T21:52:06.998Z,100874.75
2022-08-16T21:54:35.218Z,100878.91
2022-08-16T21:57:05.520Z,100875.59
2022-08-16T21:59:35.197Z,100876.00
2022-08-16T22:02:02.953Z,100861.50
2022-08-16T22:04:37.413Z,100863.78
2022-08-16T22:07:08.039Z,100875.19
2022-08-16T22:09:35.856Z,100871.88
2022-08-16T22:12:03.552Z,100873.75
2022-08-16T22:14:31.368Z,100881.00
2022-08-16T22:16:59.131Z,100876.66
2022-08-16T22:19:26.811Z,100884.75
2022-08-16T22:21:55.602Z,100878.53
2022-08-16T22:24:24.633Z,100873.97
2022-08-16T22:26:52.343Z,100873.34
2022-08-16T22:29:20.481Z,100874.41
2022-08-16T22:31:48.261Z,100870.66
2022-08-16T22:34:16.439Z,100866.06
2022-08-16T22:36:44.207Z,100871.06
2022-08-16T22:39:13.712Z,100881.84
2022-08-16T22:41:45.567Z,100886.63
2022-08-16T22:44:13.874Z,100870.84
2022-08-16T22:46:41.565Z,100879.75
2022-08-16T22:49:10.198Z,100865.44
2022-08-16T22:51:38.448Z,100877.25
2022-08-16T22:54:44.160Z,100875.59
2022-08-16T22:56:57.334Z,100876.03
2022-08-16T22:59:25.966Z,100871.06
2022-08-16T23:01:53.872Z,100876.63
2022-08-16T23:04:22.787Z,100868.53
2022-08-16T23:06:50.504Z,100869.59
2022-08-16T23:09:18.284Z,100875.63
2022-08-16T23:11:46.053Z,100875.63
2022-08-16T23:14:16.203Z,100866.88
2022-08-16T23:16:47.382Z,100877.06
2022-08-16T23:19:16.672Z,100873.97
2022-08-16T23:21:47.050Z,100865.06
2022-08-16T23:24:17.583Z,100868.56
2022-08-16T23:26:48.822Z,100866.06
2022-08-16T23:29:23.820Z,100875.19
2022-08-16T23:31:53.712Z,100861.09
2022-08-16T23:34:21.832Z,100853.00
2022-08-16T23:36:49.685Z,100855.69
2022-08-16T23:39:17.398Z,100852.16
2022-08-16T23:41:45.266Z,100845.72
2022-08-16T23:44:56.519Z,100844.06
2022-08-16T23:47:02.105Z,100849.69
2022-08-16T23:49:58.779Z,100843.69
2022-08-16T23:52:18.998Z,100844.69
2022-08-16T23:55:07.482Z,100844.91
2022-08-16T23:57:35.150Z,100844.28
